M I D A S
Marine Information and Data Acquisition System
Tripno 2205 of the Zeeleeuw from 2011-10-25 07:10:08 to 2011-10-25 15:10:04
Back to CruiseResearch ActivitiesStationsMapUnderway DataData graphs

EquipmentUnitsComment
TimeDGPSUTC
LatitudeDGPSDM.mWGS84
LongitudeDGPSDM.mWGS84
TemperatureSBE03/SBE38deg celciusITS90
ConductivitySBE21S/mITS90
SalinitySBE21 Practical Salinity Units
ChlorophylAChelsea fluorimeterg/lCalibrated in Aceton
Missing or incorrect values are displayed as -999
Sea surface data collected by the RV Zeeleeuw from 2011-10-25 06:49:53 to 2011-10-25 15:21:05
Time Latitude Longitude Temperature Conductivity Salinity ChlorophylA
2011-10-25 06:50:59 51°13.636 2°56.019 18.4131 0.019681 0.10042 -3.020363
2011-10-25 06:51:59 51°13.636 2°56.018 18.4229 0.019681 0.100432 -3.020363
2011-10-25 06:52:58 51°13.636 2°56.018 18.4251 0.019681 0.100445 -3.020363
2011-10-25 06:54:00 51°13.636 2°56.018 18.4218 0.019681 0.100458 -3.020363
2011-10-25 06:54:58 51°13.636 2°56.019 18.4299 0.019681 0.100472 -3.020363
2011-10-25 06:55:59 51°13.635 2°56.019 18.4353 0.019578 0.099977 -3.020363
2011-10-25 06:56:57 51°13.633 2°56.019 18.4338 0.019578 0.09999 -3.020363
2011-10-25 06:57:58 51°13.631 2°56.021 18.4391 0.019578 0.100001 -3.020363
2011-10-25 06:58:58 51°13.631 2°56.023 18.4487 0.019578 0.100015 -3.020363
2011-10-25 07:00:00 51°13.631 2°56.022 18.4483 0.019578 0.100029 -3.020363
2011-10-25 07:00:59 51°13.631 2°56.022 18.4627 0.019578 0.100045 -3.020363
2011-10-25 07:01:59 51°13.637 2°56.019 18.4751 0.019578 0.10006 -3.020363
2011-10-25 07:02:59 51°13.637 2°56.018 18.4697 0.019578 0.100074 -3.020363
2011-10-25 07:03:59 51°13.637 2°56.018 18.4846 0.019578 0.100091 -3.020363
2011-10-25 07:04:58 51°13.638 2°56.018 18.4838 0.019578 0.100107 -3.020363
2011-10-25 07:05:56 51°13.636 2°56.018 18.4922 0.019578 0.100121 -3.020363
2011-10-25 07:06:56 51°13.637 2°56.01 18.4763 0.019578 0.100136 -3.020363
2011-10-25 07:08:00 51°13.647 2°55.96 18.47 0.019578 0.100152 -3.020363
2011-10-25 07:09:00 51°13.65 2°55.935 18.4674 0.019475 0.09966 -3.020363
2011-10-25 07:10:00 51°13.67 2°55.89 18.516 0.019475 0.09968 -3.020363
2011-10-25 07:10:59 51°13.704 2°55.822 18.5297 0.019475 0.099698 -3.020363
2011-10-25 07:11:59 51°13.745 2°55.75 18.512 0.019475 0.099715 -3.020363
2011-10-25 07:12:59 51°13.786 2°55.68 18.5307 0.019475 0.099732 -3.020363
2011-10-25 07:13:59 51°13.836 2°55.631 18.5527 0.019475 0.099748 -3.020363
2011-10-25 07:15:00 51°13.895 2°55.619 18.5599 0.019475 0.09976 -3.020363
2011-10-25 07:15:59 51°13.943 2°55.657 18.5647 0.019475 0.099774 -3.020363
2011-10-25 07:16:59 51°13.962 2°55.688 18.5134 0.019475 0.099786 -3.020363
2011-10-25 07:17:58 51°13.989 2°55.611 18.4183 0.019475 0.099798 -3.020363
2011-10-25 07:18:57 51°14.076 2°55.49 18.4637 0.019475 0.099814 -3.020363
2011-10-25 07:19:59 51°14.192 2°55.369 18.4558 0.019475 0.099831 -3.020363
2011-10-25 07:21:00 51°14.314 2°55.259 18.4938 0.019475 0.099845 -3.020363
2011-10-25 07:21:59 51°14.446 2°55.131 18.4706 0.019372 0.099348 -3.020363
2011-10-25 07:22:58 51°14.577 2°54.973 18.5101 0.019372 0.099362 -3.020363
2011-10-25 07:23:56 51°14.636 2°54.717 18.55 0.019372 0.099377 -3.020363
2011-10-25 07:24:56 51°14.562 2°54.451 18.3789 0.019372 0.099389 -3.020363
2011-10-25 07:25:56 51°14.462 2°54.176 18.4099 0.019372 0.099404 -3.020363
2011-10-25 07:26:55 51°14.36 2°53.888 18.4084 0.019372 0.099422 -3.020363
2011-10-25 07:27:56 51°14.238 2°53.607 18.363 0.019372 0.099445 -3.020363
2011-10-25 07:28:56 51°14.127 2°53.319 18.4449 0.019372 0.099465 -3.020363
2011-10-25 07:29:56 51°14.019 2°53.028 18.4252 0.019372 0.099489 -3.020363
2011-10-25 07:30:56 51°13.896 2°52.752 18.4193 0.019372 0.099513 -3.020363
2011-10-25 07:31:56 51°13.779 2°52.468 18.4066 0.019372 0.099538 -3.020363
2011-10-25 07:32:56 51°13.666 2°52.181 18.4178 0.019372 0.099562 -3.020363
2011-10-25 07:33:55 51°13.564 2°51.888 18.4402 0.019372 0.099585 -3.020363
2011-10-25 07:34:56 51°13.46 2°51.585 18.4504 0.019269 0.099093 -3.020363
2011-10-25 07:35:56 51°13.361 2°51.285 18.446 0.019269 0.099113 -3.020363
2011-10-25 07:36:56 51°13.254 2°50.991 18.4299 0.019269 0.099134 -3.020363
2011-10-25 07:37:56 51°13.146 2°50.699 18.4236 0.019269 0.099151 -3.020363
2011-10-25 07:38:56 51°13.031 2°50.415 18.421 0.019269 0.099172 -3.020363
2011-10-25 07:39:55 51°12.919 2°50.135 18.4519 0.019269 0.099196 -3.020363
2011-10-25 07:40:56 51°12.799 2°49.852 18.4448 0.019269 0.09922 -3.020363
2011-10-25 07:41:56 51°12.685 2°49.569 18.4703 0.019269 0.099245 -3.020363
2011-10-25 07:42:56 51°12.575 2°49.283 18.4623 0.019269 0.099269 -3.020363
2011-10-25 07:43:56 51°12.482 2°48.98 18.4725 0.019269 0.099293 -3.020363
2011-10-25 07:44:56 51°12.385 2°48.681 18.4748 0.019269 0.099322 -3.020363
2011-10-25 07:45:56 51°12.284 2°48.385 18.5032 0.019269 0.099356 -3.020363
2011-10-25 07:46:56 51°12.17 2°48.105 18.4728 0.019269 0.099387 -3.020363
2011-10-25 07:47:56 51°12.066 2°47.814 18.4687 0.019167 0.098905 -3.020363
2011-10-25 07:48:56 51°11.955 2°47.529 18.5017 0.019167 0.098933 -3.020363
2011-10-25 07:49:56 51°11.851 2°47.237 18.5157 0.019167 0.098959 -3.020363
2011-10-25 07:50:56 51°11.747 2°46.947 18.5162 0.019167 0.098984 -3.020363
2011-10-25 07:51:56 51°11.637 2°46.664 18.5333 0.019167 0.099005 -3.020363
2011-10-25 07:52:56 51°11.529 2°46.38 18.5468 0.019167 0.099025 -3.020363
2011-10-25 07:53:56 51°11.426 2°46.094 18.5664 0.019167 0.099048 -3.020363
2011-10-25 07:54:56 51°11.311 2°45.821 18.549 0.019167 0.099068 -3.020363
2011-10-25 07:55:56 51°11.195 2°45.555 18.5301 0.019167 0.099087 -3.020363
2011-10-25 07:56:56 51°11.097 2°45.269 18.534 0.019167 0.099107 -3.020363
2011-10-25 07:57:56 51°10.998 2°44.986 18.5779 0.019167 0.099129 -3.020363
2011-10-25 07:58:56 51°10.885 2°44.721 18.5843 0.019064 0.098637 -3.020363
2011-10-25 07:59:56 51°10.772 2°44.457 18.5926 0.019064 0.098656 -3.020363
2011-10-25 08:00:56 51°10.677 2°44.176 18.5584 0.019064 0.098676 -3.020363
2011-10-25 08:01:56 51°10.58 2°43.898 18.6142 0.019064 0.098695 -3.020363
2011-10-25 08:02:56 51°10.475 2°43.629 18.6147 0.019064 0.098712 -3.020363
2011-10-25 08:03:56 51°10.37 2°43.368 18.6282 0.019064 0.098727 -3.020363
2011-10-25 08:04:56 51°10.297 2°43.184 18.6527 0.019064 0.098741 -3.020363
2011-10-25 08:05:56 51°10.234 2°43.039 18.6478 0.019064 0.098754 -3.020363
2011-10-25 08:06:56 51°10.208 2°42.939 18.6687 0.019064 0.098765 -3.020363
2011-10-25 08:07:56 51°10.206 2°42.867 18.6866 0.019064 0.098781 -3.020363
2011-10-25 08:08:56 51°10.204 2°42.815 18.6906 0.019064 0.098802 -3.020363
2011-10-25 08:09:56 51°10.204 2°42.812 18.7084 0.019064 0.098823 -3.020363
2011-10-25 08:10:56 51°10.207 2°42.816 18.7185 0.019064 0.098856 -3.020363
2011-10-25 08:11:56 51°10.211 2°42.82 18.746 0.019064 0.098886 -3.020363
2011-10-25 08:12:56 51°10.215 2°42.824 18.7531 0.019064 0.098917 -3.020363
2011-10-25 08:13:56 51°10.219 2°42.83 18.7487 0.018961 0.098432 -3.020363
2011-10-25 08:14:56 51°10.223 2°42.836 18.751 0.018961 0.098465 -3.020363
2011-10-25 08:15:56 51°10.228 2°42.842 18.7429 0.018961 0.098443 -3.020363
2011-10-25 08:16:56 51°10.232 2°42.849 18.7486 0.018961 0.098531 -3.020363
2011-10-25 08:17:56 51°10.237 2°42.856 18.7662 0.018961 0.098577 -3.020363
2011-10-25 08:18:56 51°10.242 2°42.864 18.7848 0.018961 0.098618 -3.020363
2011-10-25 08:19:56 51°10.248 2°42.872 18.804 0.018961 0.098661 -3.020363
2011-10-25 08:20:56 51°10.253 2°42.88 18.8206 0.018961 0.098701 -3.020363
2011-10-25 08:21:56 51°10.258 2°42.889 18.8351 0.018961 0.098742 -3.020363
2011-10-25 08:22:56 51°10.265 2°42.899 18.8532 0.018961 0.098788 -3.020363
2011-10-25 08:23:56 51°10.27 2°42.909 18.8694 0.018858 0.098313 -3.020363
2011-10-25 08:24:56 51°10.274 2°42.921 18.8889 0.018858 0.098357 -3.020363
2011-10-25 08:25:56 51°10.28 2°42.933 18.9067 0.018858 0.098401 -3.020363
2011-10-25 08:26:56 51°10.286 2°42.946 18.9328 0.018858 0.098444 -3.020363
2011-10-25 08:27:56 51°10.293 2°42.959 18.954 0.018858 0.098484 -3.020363
2011-10-25 08:28:56 51°10.299 2°42.972 18.9738 0.018858 0.098521 -3.020363
2011-10-25 08:29:56 51°10.305 2°42.987 18.991 0.018858 0.098559 -3.020363
2011-10-25 08:30:56 51°10.312 2°43.001 19.0139 0.018858 0.098593 -3.020363
2011-10-25 08:31:56 51°10.319 2°43.016 19.0345 0.018755 0.098111 -3.020363
2011-10-25 08:32:56 51°10.326 2°43.031 19.0558 0.018755 0.098152 -3.020363
2011-10-25 08:33:56 51°10.334 2°43.046 19.0707 0.018755 0.098192 -3.020363
2011-10-25 08:34:56 51°10.335 2°43.038 19.0936 0.018755 0.098221 -3.020363
2011-10-25 08:35:56 51°10.368 2°42.995 19.1324 0.018755 0.098248 -3.020363
2011-10-25 08:36:56 51°10.464 2°43.012 19.1428 0.018755 0.0983 -3.020363
2011-10-25 08:37:56 51°10.555 2°43.083 19.1681 0.018755 0.098334 -3.020363
2011-10-25 08:38:56 51°10.604 2°43.171 19.1859 0.018755 0.098363 -3.020363
2011-10-25 08:39:56 51°10.641 2°43.259 19.2018 0.018755 0.098383 -3.020363
2011-10-25 08:40:56 51°10.679 2°43.337 19.2228 0.018755 0.098403 -3.020363
2011-10-25 08:41:56 51°10.719 2°43.411 19.2482 0.018653 0.0979 -3.020363
2011-10-25 08:42:56 51°10.759 2°43.485 19.2721 0.018653 0.097929 -3.020363
2011-10-25 08:43:56 51°10.8 2°43.557 19.2953 0.018653 0.097963 -3.020363
2011-10-25 08:44:56 51°10.84 2°43.63 19.3174 0.018653 0.097999 -3.020363
2011-10-25 08:45:56 51°10.881 2°43.703 19.341 0.018653 0.098035 -3.020363
2011-10-25 08:46:56 51°10.919 2°43.778 19.3579 0.018653 0.098072 -3.020363
2011-10-25 08:47:56 51°10.956 2°43.857 19.3817 0.018653 0.098108 -3.020363
2011-10-25 08:48:56 51°10.989 2°43.941 19.413 0.018653 0.098143 -3.020363
2011-10-25 08:49:56 51°11.017 2°44.029 19.4276 0.018653 0.098177 -3.020363
2011-10-25 08:50:56 51°11.043 2°44.119 19.4561 0.018653 0.098213 -3.020363
2011-10-25 08:51:56 51°11.067 2°44.211 19.48 0.018653 0.098248 -3.020363
2011-10-25 08:52:56 51°11.084 2°44.303 19.4982 0.018653 0.098287 -3.020363
2011-10-25 08:53:56 51°11.099 2°44.394 19.5255 0.018653 0.098326 -3.020363
2011-10-25 08:54:56 51°11.107 2°44.487 19.5503 0.018653 0.098367 -3.020363
2011-10-25 08:55:56 51°11.098 2°44.599 19.5632 0.018653 0.098404 -3.020363
2011-10-25 08:56:56 51°11.08 2°44.689 19.5936 0.01855 0.097923 -3.020363
2011-10-25 08:57:56 51°11.07 2°44.755 19.6076 0.01855 0.097975 -3.020363
2011-10-25 08:58:56 51°11.064 2°44.809 19.6375 0.01855 0.09802 -3.020363
2011-10-25 08:59:56 51°11.059 2°44.858 19.6384 0.01855 0.098058 -3.020363
2011-10-25 09:00:56 51°11.035 2°44.873 19.6692 0.01855 0.098082 -3.020363
2011-10-25 09:01:56 51°11.038 2°44.832 19.6975 0.01855 0.098129 -3.020363
2011-10-25 09:02:56 51°11.044 2°44.707 19.7018 0.01855 0.098162 -3.020363
2011-10-25 09:03:56 51°11.027 2°44.544 19.7254 0.01855 0.098171 -3.020363
2011-10-25 09:04:56 51°11.007 2°44.375 19.7487 0.01855 0.098194 -3.020363
2011-10-25 09:05:56 51°10.986 2°44.16 19.7524 0.01855 0.098213 -3.020363
2011-10-25 09:06:56 51°10.96 2°43.921 19.785 0.01855 0.098249 -3.020363
2011-10-25 09:07:56 51°10.924 2°43.685 19.8051 0.01855 0.098268 -3.020363
2011-10-25 09:08:56 51°10.875 2°43.437 19.8258 0.01855 0.098277 -3.020363
2011-10-25 09:09:56 51°10.817 2°43.178 19.8421 0.01855 0.098296 -3.020363
2011-10-25 09:10:56 51°10.76 2°42.918 19.8618 0.01855 0.098322 -3.020363
2011-10-25 09:11:56 51°10.718 2°42.651 19.8877 0.01855 0.098344 -3.020363
2011-10-25 09:12:56 51°10.678 2°42.382 19.9025 0.01855 0.098365 -3.020363
2011-10-25 09:13:56 51°10.627 2°42.121 19.9223 0.01855 0.098391 -3.020363
2011-10-25 09:14:56 51°10.568 2°41.862 19.9467 0.01855 0.098416 -3.020363
2011-10-25 09:15:56 51°10.516 2°41.6 19.959 0.01855 0.098438 -3.020363
2011-10-25 09:16:56 51°10.477 2°41.33 19.9813 0.01855 0.098467 -3.020363
2011-10-25 09:17:56 51°10.427 2°41.067 20.0071 0.018447 0.097964 -3.020363
2011-10-25 09:18:56 51°10.367 2°40.811 20.0777 0.018447 0.097974 -3.020363
2011-10-25 09:19:56 51°10.32 2°40.546 20.0192 0.018447 0.097898 -3.020363
2011-10-25 09:20:56 51°10.281 2°40.277 19.9679 0.018447 0.098008 -3.020363
2011-10-25 09:21:56 51°10.238 2°40.011 20.0016 0.018447 0.098048 -3.020363
2011-10-25 09:22:56 51°10.183 2°39.753 20.0328 0.018447 0.098075 -3.020363
2011-10-25 09:23:56 51°10.124 2°39.497 20.0677 0.018447 0.098101 -3.020363
2011-10-25 09:24:56 51°10.087 2°39.232 20.1039 0.018447 0.098127 -3.020363
2011-10-25 09:25:56 51°10.053 2°38.964 20.1474 0.018447 0.098155 -3.020363
2011-10-25 09:26:56 51°10.006 2°38.706 20.1647 0.018447 0.09818 -3.020363
2011-10-25 09:27:56 51°9.978 2°38.44 20.2166 0.018447 0.098205 -3.020363
2011-10-25 09:28:56 51°9.963 2°38.169 20.2469 0.018447 0.098232 -3.020363
2011-10-25 09:29:56 51°9.942 2°37.898 20.2027 0.018447 0.098258 -3.020363
2011-10-25 09:30:56 51°9.916 2°37.629 18.8043 0.018447 0.09824 -3.020363
2011-10-25 09:31:56 51°9.895 2°37.358 18.8445 0.018447 0.098296 -3.020363
2011-10-25 09:32:56 51°9.891 2°37.081 19.0714 0.018447 0.09833 -3.020363
2011-10-25 09:33:56 51°9.888 2°36.806 19.0537 0.018344 0.097823 -3.020363
2011-10-25 09:34:56 51°9.929 2°36.533 19.0767 0.018344 0.097843 -3.020363
2011-10-25 09:35:56 51°9.99 2°36.272 19.1616 0.018344 0.097859 -3.020363
2011-10-25 09:36:56 51°10.097 2°36.042 19.1499 0.018344 0.097873 -3.020363
2011-10-25 09:37:56 51°10.258 2°35.868 19.1728 0.018344 0.097886 -3.020363
2011-10-25 09:38:56 51°10.445 2°35.742 19.3405 0.018344 0.097895 -3.020363
2011-10-25 09:39:56 51°10.654 2°35.739 19.3027 0.018344 0.097902 -3.020363
2011-10-25 09:40:56 51°10.852 2°35.895 19.287 0.018344 0.097917 -3.020363
2011-10-25 09:41:56 51°11.042 2°36.082 19.3871 0.018344 0.097937 -3.020363
2011-10-25 09:42:56 51°11.234 2°36.259 19.3719 0.018344 0.097962 -3.020363
2011-10-25 09:43:56 51°11.429 2°36.428 19.355 0.018344 0.097993 -3.020363
2011-10-25 09:44:56 51°11.627 2°36.58 19.4979 0.018344 0.098027 -3.020363
2011-10-25 09:45:56 51°11.814 2°36.771 19.4776 0.018344 0.098061 -3.020363
2011-10-25 09:46:56 51°11.994 2°36.976 19.4771 0.018344 0.098099 -3.020363
2011-10-25 09:47:56 51°12.178 2°37.175 19.5383 0.018344 0.098136 -3.020363
2011-10-25 09:48:56 51°12.364 2°37.368 19.5479 0.018344 0.098175 -3.020363
2011-10-25 09:49:56 51°12.554 2°37.554 19.5592 0.018344 0.098217 -3.020363
2011-10-25 09:50:56 51°12.747 2°37.731 19.5241 0.018344 0.098266 -3.020363
2011-10-25 09:51:56 51°12.957 2°37.797 19.5851 0.018241 0.097777 -3.020363
2011-10-25 09:52:56 51°13.162 2°37.758 19.6588 0.018241 0.097824 -3.020363
2011-10-25 09:53:56 51°13.336 2°37.619 19.6274 0.018241 0.097864 -3.020363
2011-10-25 09:54:56 51°13.463 2°37.398 19.6506 0.018241 0.097891 -3.020363
2011-10-25 09:55:56 51°13.563 2°37.157 19.6656 0.018241 0.097916 -3.020363
2011-10-25 09:56:56 51°13.608 2°36.884 19.6968 0.018241 0.097931 -3.020363
2011-10-25 09:57:56 51°13.65 2°36.609 19.7402 0.018241 0.097943 -3.020363
2011-10-25 09:58:56 51°13.7 2°36.335 19.7671 0.018241 0.097954 -3.020363
2011-10-25 09:59:56 51°13.759 2°36.063 19.7782 0.018241 0.097963 -3.020363
2011-10-25 10:00:56 51°13.824 2°35.792 19.779 0.018241 0.097972 -3.020363
2011-10-25 10:01:56 51°13.886 2°35.518 19.8509 0.018241 0.097977 -3.020363
2011-10-25 10:02:56 51°14.015 2°35.304 19.8679 0.018241 0.097975 -3.020363
2011-10-25 10:03:56 51°14.22 2°35.257 19.8833 0.018241 0.097981 -3.020363
2011-10-25 10:04:56 51°14.438 2°35.332 19.8904 0.018241 0.097989 -3.020363
2011-10-25 10:05:56 51°14.655 2°35.445 19.8991 0.018241 0.098002 -3.020363
2011-10-25 10:06:56 51°14.873 2°35.536 19.9136 0.018241 0.098024 -3.020363
2011-10-25 10:07:56 51°15.091 2°35.637 19.9288 0.018241 0.098049 -3.020363
2011-10-25 10:08:56 51°15.31 2°35.752 19.9349 0.018241 0.098076 -3.020363
2011-10-25 10:09:56 51°15.532 2°35.859 19.9866 0.018241 0.098105 -3.020363
2011-10-25 10:10:56 51°15.755 2°35.969 20.0099 0.018241 0.098134 -3.020363
2011-10-25 10:11:56 51°15.979 2°36.074 20.0081 0.018241 0.098167 -3.020363
2011-10-25 10:12:56 51°16.204 2°36.18 20.0193 0.018241 0.098198 -3.020363
2011-10-25 10:13:56 51°16.426 2°36.278 20.0373 0.018241 0.098231 -3.020363
2011-10-25 10:14:56 51°16.647 2°36.371 20.2897 0.018139 0.097646 -3.020363
2011-10-25 10:15:56 51°16.868 2°36.426 20.3004 0.018139 0.097736 -3.020363
2011-10-25 10:16:56 51°17.087 2°36.459 20.3249 0.018139 0.097775 -3.020363
2011-10-25 10:17:56 51°17.305 2°36.473 20.3401 0.018139 0.097803 -3.020363
2011-10-25 10:18:56 51°17.521 2°36.499 20.351 0.018139 0.097842 -3.020363
2011-10-25 10:19:56 51°17.699 2°36.363 20.4102 0.018139 0.097867 -3.020363
2011-10-25 10:20:56 51°17.823 2°36.143 20.4436 0.018139 0.09789 -3.020363
2011-10-25 10:21:56 51°17.918 2°35.893 20.4467 0.018139 0.097904 -3.020363
2011-10-25 10:22:56 51°17.954 2°35.62 20.478 0.018139 0.097927 -3.020363
2011-10-25 10:23:56 51°17.931 2°35.344 20.5123 0.018139 0.097936 -3.020363
2011-10-25 10:24:56 51°17.904 2°35.065 20.5325 0.018139 0.097942 -3.020363
2011-10-25 10:25:56 51°17.882 2°34.792 20.5517 0.018139 0.097946 -3.020363
2011-10-25 10:26:56 51°17.871 2°34.517 20.575 0.018139 0.097955 -3.020363
2011-10-25 10:27:56 51°17.831 2°34.252 20.6023 0.018139 0.097967 -3.020363
2011-10-25 10:28:56 51°17.776 2°33.994 20.6299 0.018139 0.097978 -3.020363
2011-10-25 10:29:56 51°17.728 2°33.733 20.6493 0.018139 0.097993 -3.020363
2011-10-25 10:30:56 51°17.682 2°33.469 20.6755 0.018139 0.098011 -3.020363
2011-10-25 10:31:56 51°17.634 2°33.203 20.6962 0.018139 0.09803 -3.020363
2011-10-25 10:32:56 51°17.57 2°32.949 20.7185 0.018139 0.09805 -3.020363
2011-10-25 10:33:56 51°17.504 2°32.693 20.7423 0.018036 0.097528 -3.020363
2011-10-25 10:34:56 51°17.444 2°32.435 20.7632 0.018036 0.097548 -3.020363
2011-10-25 10:35:56 51°17.375 2°32.185 20.7865 0.018036 0.097567 -3.020363
2011-10-25 10:36:56 51°17.32 2°31.924 20.8108 0.018036 0.097588 -3.020363
2011-10-25 10:37:56 51°17.263 2°31.665 20.8311 0.018036 0.097609 -3.020363
2011-10-25 10:38:56 51°17.203 2°31.413 20.8523 0.018036 0.09763 -3.020363
2011-10-25 10:39:56 51°17.154 2°31.156 20.8773 0.018036 0.097651 -3.020363
2011-10-25 10:40:56 51°17.094 2°30.908 20.8945 0.018036 0.097672 -3.020363
2011-10-25 10:41:56 51°17.022 2°30.667 20.916 0.018036 0.097687 -3.020363
2011-10-25 10:42:56 51°16.949 2°30.425 20.9441 0.018036 0.097711 -3.020363
2011-10-25 10:43:56 51°16.886 2°30.17 20.9635 0.018036 0.097727 -3.020363
2011-10-25 10:44:56 51°16.824 2°29.909 20.9865 0.018036 0.097741 -3.020363
2011-10-25 10:45:56 51°16.758 2°29.651 21.0001 0.018036 0.097756 -3.020363
2011-10-25 10:46:56 51°16.687 2°29.396 21.0283 0.018036 0.097769 -3.020363
2011-10-25 10:47:56 51°16.613 2°29.141 21.0503 0.018036 0.097783 -3.020363
2011-10-25 10:48:56 51°16.541 2°28.884 21.0786 0.018036 0.097795 -3.020363
2011-10-25 10:49:56 51°16.466 2°28.63 21.0986 0.018036 0.097807 -3.020363
2011-10-25 10:50:56 51°16.4 2°28.366 21.1134 0.018036 0.097817 -3.020363
2011-10-25 10:51:56 51°16.327 2°28.106 21.1466 0.018036 0.097829 -3.020363
2011-10-25 10:52:56 51°16.253 2°27.846 21.1629 0.017933 0.097299 -3.020363
2011-10-25 10:53:56 51°16.181 2°27.585 21.1821 0.017933 0.097314 -3.020363
2011-10-25 10:54:56 51°16.1 2°27.332 21.1986 0.017933 0.097327 -3.020363
2011-10-25 10:55:56 51°16.041 2°27.069 21.2294 0.017933 0.097339 -3.020363
2011-10-25 10:56:56 51°15.981 2°26.811 21.2418 0.017933 0.097353 -3.020363
2011-10-25 10:57:56 51°15.945 2°26.549 21.259 0.017933 0.097363 -3.020363
2011-10-25 10:58:56 51°15.954 2°26.283 21.2745 0.017933 0.097372 -3.020363
2011-10-25 10:59:56 51°15.96 2°26.017 21.2995 0.017933 0.097375 -3.020363
2011-10-25 11:00:56 51°15.973 2°25.753 21.3219 0.017933 0.097385 -3.020363
2011-10-25 11:01:56 51°15.992 2°25.486 21.3494 0.017933 0.097394 -3.020363
2011-10-25 11:02:56 51°16.024 2°25.262 21.3708 0.017933 0.0974 -3.020363
2011-10-25 11:03:56 51°16.087 2°25.215 21.393 0.017933 0.097409 -3.020363
2011-10-25 11:04:56 51°16.124 2°25.242 21.413 0.017933 0.097409 -3.020363
2011-10-25 11:05:56 51°16.153 2°25.279 21.4278 0.017933 0.097421 -3.020363
2011-10-25 11:06:56 51°16.184 2°25.318 21.4438 0.017933 0.097429 -3.020363
2011-10-25 11:07:56 51°16.214 2°25.354 21.4624 0.017933 0.097432 -3.020363
2011-10-25 11:08:56 51°16.244 2°25.392 21.4815 0.017933 0.097429 -3.020363
2011-10-25 11:09:56 51°16.271 2°25.432 21.5025 0.017933 0.097429 -3.020363
2011-10-25 11:10:56 51°16.299 2°25.472 21.5194 0.017933 0.097427 -3.020363
2011-10-25 11:11:56 51°16.327 2°25.512 21.5375 0.017933 0.097424 -3.020363
2011-10-25 11:12:56 51°16.356 2°25.553 21.554 0.017933 0.097424 -3.020363
2011-10-25 11:13:56 51°16.383 2°25.595 21.5732 0.017933 0.097426 -3.020363
2011-10-25 11:14:56 51°16.41 2°25.637 21.5941 0.017933 0.097439 -3.020363
2011-10-25 11:15:56 51°16.437 2°25.68 21.6099 0.017933 0.097451 -3.020363
2011-10-25 11:16:56 51°16.463 2°25.726 21.63 0.017933 0.097457 -3.020363
2011-10-25 11:17:56 51°16.49 2°25.773 21.6464 0.017933 0.097474 -3.020363
2011-10-25 11:18:56 51°16.516 2°25.821 21.6624 0.017933 0.097487 -3.020363
2011-10-25 11:19:56 51°16.543 2°25.871 21.6771 0.01783 0.09696 -3.020363
2011-10-25 11:20:56 51°16.568 2°25.917 21.6952 0.01783 0.096976 -3.020363
2011-10-25 11:21:56 51°16.592 2°25.962 21.7123 0.01783 0.096993 -3.020363
2011-10-25 11:22:56 51°16.616 2°26.005 21.7262 0.01783 0.097012 -3.020363
2011-10-25 11:23:56 51°16.641 2°26.053 21.7421 0.01783 0.097029 -3.020363
2011-10-25 11:24:56 51°16.666 2°26.097 21.7554 0.01783 0.09705 -3.020363
2011-10-25 11:25:56 51°16.698 2°26.09 21.7843 0.01783 0.097059 -3.020363
2011-10-25 11:26:56 51°16.773 2°26.136 21.8011 0.01783 0.097078 -3.020363
2011-10-25 11:27:56 51°16.809 2°26.276 21.82 0.01783 0.097096 -3.020363
2011-10-25 11:28:56 51°16.778 2°26.364 21.8286 0.01783 0.097117 -3.020363
2011-10-25 11:29:56 51°16.705 2°26.332 21.8402 0.01783 0.097129 -3.020363
2011-10-25 11:30:56 51°16.662 2°26.288 21.86 0.01783 0.097147 -3.020363
2011-10-25 11:31:56 51°16.636 2°26.246 21.8664 0.01783 0.097153 -3.020363
2011-10-25 11:32:56 51°16.612 2°26.187 21.8827 0.01783 0.097159 -3.020363
2011-10-25 11:33:56 51°16.588 2°26.127 21.9043 0.01783 0.09717 -3.020363
2011-10-25 11:34:56 51°16.57 2°26.06 21.914 0.01783 0.097173 -3.020363
2011-10-25 11:35:56 51°16.548 2°25.997 21.9164 0.01783 0.097177 -3.020363
2011-10-25 11:36:56 51°16.528 2°25.932 21.9328 0.017727 0.096635 -3.020363
2011-10-25 11:37:56 51°16.508 2°25.867 21.9425 0.017727 0.096638 -3.020363
2011-10-25 11:38:56 51°16.489 2°25.803 21.9653 0.017727 0.096641 -3.020363
2011-10-25 11:39:56 51°16.463 2°25.754 21.972 0.017727 0.096644 -3.020363
2011-10-25 11:40:56 51°16.422 2°25.725 21.99 0.017727 0.096647 -3.020363
2011-10-25 11:41:56 51°16.382 2°25.689 22.0098 0.017727 0.096648 -3.020363
2011-10-25 11:42:56 51°16.35 2°25.647 22.02 0.017727 0.096651 -3.020363
2011-10-25 11:43:56 51°16.317 2°25.602 22.0415 0.017727 0.096651 -3.020363
2011-10-25 11:44:56 51°16.281 2°25.561 22.0607 0.017727 0.096654 -3.020363
2011-10-25 11:45:56 51°16.243 2°25.524 22.0785 0.017727 0.096657 -3.020363
2011-10-25 11:46:56 51°16.206 2°25.484 22.0954 0.017727 0.09666 -3.020363
2011-10-25 11:47:56 51°16.177 2°25.431 22.1007 0.017727 0.096662 -3.020363
2011-10-25 11:48:56 51°16.174 2°25.355 22.1107 0.017727 0.096666 -3.020363
2011-10-25 11:49:56 51°16.2 2°25.266 22.1363 0.017727 0.096672 -3.020363
2011-10-25 11:50:56 51°16.244 2°25.182 22.1463 0.017727 0.09668 -3.020363
2011-10-25 11:51:56 51°16.31 2°25.114 22.1649 0.017727 0.096689 -3.020363
2011-10-25 11:52:56 51°16.389 2°25.078 22.165 0.017727 0.096698 -3.020363
2011-10-25 11:53:56 51°16.473 2°25.076 22.187 0.017727 0.096707 -3.020363
2011-10-25 11:54:56 51°16.555 2°25.122 22.1973 0.017727 0.096713 -3.020363
2011-10-25 11:55:56 51°16.625 2°25.196 22.2101 0.017727 0.096717 -3.020363
2011-10-25 11:56:56 51°16.683 2°25.286 22.2253 0.017625 0.096174 -3.020363
2011-10-25 11:57:56 51°16.731 2°25.386 22.2383 0.017625 0.096176 -3.020363
2011-10-25 11:58:56 51°16.769 2°25.491 22.2505 0.017625 0.09618 -3.020363
2011-10-25 11:59:56 51°16.806 2°25.598 22.2719 0.017625 0.096185 -3.020363
2011-10-25 12:00:56 51°16.846 2°25.705 22.2882 0.017625 0.096192 -3.020363
2011-10-25 12:01:56 51°16.887 2°25.813 22.2951 0.017625 0.096197 -3.020363
2011-10-25 12:02:56 51°16.924 2°25.922 22.3071 0.017625 0.096202 -3.020363
2011-10-25 12:03:56 51°16.951 2°26.031 22.323 0.017625 0.09621 -3.020363
2011-10-25 12:04:56 51°16.969 2°26.137 22.3332 0.017625 0.096217 -3.020363
2011-10-25 12:05:56 51°16.982 2°26.247 22.3496 0.017625 0.096229 -3.020363
2011-10-25 12:06:56 51°16.993 2°26.381 22.3663 0.017625 0.096238 -3.020363
2011-10-25 12:07:56 51°17.003 2°26.513 22.3809 0.017625 0.096253 -3.020363
2011-10-25 12:08:56 51°17.011 2°26.625 22.3975 0.017625 0.096271 -3.020363
2011-10-25 12:09:56 51°17.017 2°26.729 22.4143 0.017625 0.096292 -3.020363
2011-10-25 12:10:56 51°17.019 2°26.84 22.4132 0.017625 0.09632 -3.020363
2011-10-25 12:11:56 51°17.009 2°26.963 22.4533 0.017625 0.096342 -3.020363
2011-10-25 12:12:56 51°17.004 2°27.059 22.4377 0.017625 0.096372 -3.020363
2011-10-25 12:13:56 51°17.007 2°27.132 22.457 0.017625 0.096402 -3.020363
2011-10-25 12:14:56 51°17.015 2°27.192 22.4706 0.017522 0.095886 -3.020363
2011-10-25 12:15:56 51°17.025 2°27.245 22.478 0.017522 0.095913 -3.020363
2011-10-25 12:16:56 51°17.022 2°27.326 22.4876 0.017522 0.09594 -3.020363
2011-10-25 12:17:56 51°17.007 2°27.448 22.4965 0.017522 0.095967 -3.020363
2011-10-25 12:18:56 51°17.014 2°27.682 22.5514 0.017522 0.095989 -3.020363
2011-10-25 12:19:56 51°17.051 2°27.948 22.5625 0.017522 0.096028 -3.020363
2011-10-25 12:20:56 51°17.093 2°28.28 22.5707 0.017522 0.096065 -3.020363
2011-10-25 12:21:56 51°17.146 2°28.621 22.5855 0.017522 0.096108 -3.020363
2011-10-25 12:22:56 51°17.195 2°28.964 22.5883 0.017522 0.096152 -3.020363
2011-10-25 12:23:56 51°17.241 2°29.308 22.6219 0.017522 0.096183 -3.020363
2011-10-25 12:24:56 51°17.287 2°29.654 22.6186 0.017522 0.096216 -3.020363
2011-10-25 12:25:56 51°17.337 2°30 22.6186 0.017522 0.09627 -3.020363
2011-10-25 12:26:56 51°17.392 2°30.347 22.6461 0.017522 0.096308 -3.020363
2011-10-25 12:27:56 51°17.441 2°30.694 22.6369 0.017419 0.095792 -3.020363
2011-10-25 12:28:56 51°17.487 2°31.041 22.6497 0.017419 0.095828 -3.020363
2011-10-25 12:29:56 51°17.54 2°31.386 22.6861 0.017419 0.09588 -3.020363
2011-10-25 12:30:56 51°17.571 2°31.734 22.6788 0.017419 0.095924 -3.020363
2011-10-25 12:31:56 51°17.603 2°32.079 22.6913 0.017419 0.095971 -3.020363
2011-10-25 12:32:56 51°17.642 2°32.426 22.6882 0.017419 0.096008 -3.020363
2011-10-25 12:33:56 51°17.674 2°32.776 22.6902 0.017419 0.096047 -3.020363
2011-10-25 12:34:56 51°17.712 2°33.129 22.713 0.017419 0.096085 -3.020363
2011-10-25 12:35:56 51°17.741 2°33.484 22.7175 0.017419 0.096126 -3.020363
2011-10-25 12:36:56 51°17.754 2°33.84 22.7221 0.017419 0.096165 -3.020363
2011-10-25 12:37:56 51°17.761 2°34.196 22.7276 0.017419 0.096204 -3.020363
2011-10-25 12:38:56 51°17.772 2°34.555 22.7371 0.017316 0.095702 -3.020363
2011-10-25 12:39:56 51°17.784 2°34.916 22.7563 0.017316 0.095738 -3.020363
2011-10-25 12:40:56 51°17.768 2°35.27 22.796 0.017316 0.095793 -3.020363
2011-10-25 12:41:56 51°17.627 2°35.485 22.7864 0.017316 0.095814 -3.020363
2011-10-25 12:42:56 51°17.444 2°35.556 22.763 0.017316 0.095856 -3.020363
2011-10-25 12:43:56 51°17.257 2°35.602 22.781 0.017316 0.095921 -3.020363
2011-10-25 12:44:56 51°17.067 2°35.635 22.8056 0.017316 0.095965 -3.020363
2011-10-25 12:45:56 51°16.877 2°35.642 22.7888 0.017316 0.095977 -3.020363
2011-10-25 12:46:56 51°16.688 2°35.669 22.8039 0.017316 0.096003 -3.020363
2011-10-25 12:47:56 51°16.499 2°35.689 22.8029 0.017316 0.096034 -3.020363
2011-10-25 12:48:56 51°16.311 2°35.711 22.8007 0.017316 0.096063 -3.020363
2011-10-25 12:49:56 51°16.123 2°35.733 22.8237 0.017213 0.095532 -3.020363
2011-10-25 12:50:56 51°15.937 2°35.769 22.8306 0.017213 0.095558 -3.020363
2011-10-25 12:51:56 51°15.752 2°35.787 22.8409 0.017213 0.095582 -3.020363
2011-10-25 12:52:56 51°15.567 2°35.801 22.8514 0.017213 0.095602 -3.020363
2011-10-25 12:53:56 51°15.382 2°35.815 22.8416 0.017213 0.095626 -3.020363
2011-10-25 12:54:56 51°15.198 2°35.848 22.8654 0.017213 0.09565 -3.020363
2011-10-25 12:55:56 51°15.015 2°35.862 22.8801 0.017213 0.095667 -3.020363
2011-10-25 12:56:56 51°14.831 2°35.876 22.8723 0.017213 0.09569 -3.020363
2011-10-25 12:57:56 51°14.648 2°35.885 22.8654 0.017213 0.095713 -3.020363
2011-10-25 12:58:56 51°14.462 2°35.907 22.8832 0.017213 0.095737 -3.020363
2011-10-25 12:59:56 51°14.274 2°35.911 22.8852 0.017213 0.095761 -3.020363
2011-10-25 13:00:56 51°14.095 2°35.98 22.8953 0.017213 0.095801 -3.020363
2011-10-25 13:01:56 51°13.965 2°36.217 22.8979 0.017213 0.095802 -3.020363
2011-10-25 13:02:56 51°13.843 2°36.477 22.9321 0.017111 0.095273 -3.020363
2011-10-25 13:03:56 51°13.728 2°36.749 22.9127 0.017111 0.095305 -3.020363
2011-10-25 13:04:56 51°13.6 2°37.005 22.9479 0.017111 0.095366 -3.020363
2011-10-25 13:05:56 51°13.48 2°37.261 22.9122 0.017111 0.095392 -3.020363
2011-10-25 13:06:56 51°13.354 2°37.501 22.954 0.017111 0.095426 -3.020363
2011-10-25 13:07:56 51°13.173 2°37.573 22.9469 0.017111 0.095471 -3.020363
2011-10-25 13:08:56 51°12.984 2°37.537 22.9397 0.017111 0.095507 -3.020363
2011-10-25 13:09:56 51°12.796 2°37.491 22.9373 0.017111 0.095532 -3.020363
2011-10-25 13:10:56 51°12.611 2°37.424 22.9404 0.017111 0.095562 -3.020363
2011-10-25 13:11:56 51°12.424 2°37.374 22.9542 0.017111 0.095602 -3.020363
2011-10-25 13:12:56 51°12.238 2°37.31 22.9643 0.017111 0.095623 -3.020363
2011-10-25 13:13:56 51°12.052 2°37.239 22.94 0.017111 0.095633 -3.020363
2011-10-25 13:14:56 51°11.868 2°37.168 22.954 0.017008 0.095092 -3.020363
2011-10-25 13:15:56 51°11.681 2°37.11 22.9712 0.017008 0.09511 -3.020363
2011-10-25 13:16:56 51°11.496 2°37.042 22.9735 0.017008 0.095128 -3.020363
2011-10-25 13:17:56 51°11.315 2°36.943 22.9659 0.017008 0.095143 -3.020363
2011-10-25 13:18:56 51°11.13 2°36.866 22.9618 0.017008 0.095159 -3.020363
2011-10-25 13:19:56 51°10.947 2°36.791 22.9877 0.017008 0.095175 -3.020363
2011-10-25 13:20:56 51°10.766 2°36.7 22.9967 0.017008 0.095198 -3.020363
2011-10-25 13:21:56 51°10.587 2°36.617 22.9666 0.017008 0.095206 -3.020363
2011-10-25 13:22:56 51°10.407 2°36.609 22.9508 0.017008 0.095224 -3.020363
2011-10-25 13:23:56 51°10.278 2°36.842 22.9944 0.017008 0.095242 -3.020363
2011-10-25 13:24:56 51°10.218 2°37.163 22.9633 0.017008 0.095253 -3.020363
2011-10-25 13:25:56 51°10.26 2°37.495 23.0367 0.017008 0.09527 -3.020363
2011-10-25 13:26:56 51°10.32 2°37.824 23.0069 0.017008 0.095293 -3.020363
2011-10-25 13:27:56 51°10.368 2°38.156 23.0013 0.017008 0.09532 -3.020363
2011-10-25 13:28:56 51°10.402 2°38.495 22.9972 0.017008 0.095337 -3.020363
2011-10-25 13:29:56 51°10.438 2°38.834 22.9992 0.017008 0.095357 -3.020363
2011-10-25 13:30:56 51°10.469 2°39.176 23.0064 0.016905 0.094821 -3.020363
2011-10-25 13:31:56 51°10.509 2°39.515 23.0067 0.016905 0.094845 -3.020363
2011-10-25 13:32:56 51°10.543 2°39.852 23.0001 0.016905 0.094874 -3.020363
2011-10-25 13:33:56 51°10.597 2°40.184 23.0077 0.016905 0.0949 -3.020363
2011-10-25 13:34:56 51°10.645 2°40.519 23.0088 0.016905 0.094926 -3.020363
2011-10-25 13:35:56 51°10.699 2°40.847 23.006 0.016905 0.094953 -3.020363
2011-10-25 13:36:56 51°10.746 2°41.176 22.9835 0.016905 0.094985 -3.020363
2011-10-25 13:37:56 51°10.802 2°41.501 23.0046 0.016905 0.095011 -3.020363
2011-10-25 13:38:56 51°10.865 2°41.824 23.03 0.016905 0.095039 -3.020363
2011-10-25 13:39:56 51°10.922 2°42.149 23.0368 0.016905 0.095067 -3.020363
2011-10-25 13:40:56 51°10.978 2°42.475 23.0088 0.016905 0.095091 -3.020363
2011-10-25 13:41:56 51°11.039 2°42.799 23.0054 0.016905 0.09512 -3.020363
2011-10-25 13:42:56 51°11.101 2°43.122 23.0277 0.016802 0.094586 -3.020363
2011-10-25 13:43:56 51°11.159 2°43.445 23.0059 0.016802 0.094609 -3.020363
2011-10-25 13:44:56 51°11.235 2°43.758 23.0164 0.016802 0.094638 -3.020363
2011-10-25 13:45:56 51°11.298 2°44.076 23.0256 0.016802 0.094664 -3.020363
2011-10-25 13:46:56 51°11.373 2°44.385 23.0183 0.016802 0.09469 -3.020363
2011-10-25 13:47:56 51°11.436 2°44.7 23.0321 0.016802 0.094708 -3.020363
2011-10-25 13:48:56 51°11.444 2°45.029 23.0272 0.016802 0.094734 -3.020363
2011-10-25 13:49:56 51°11.459 2°45.357 23.0255 0.016802 0.094759 -3.020363
2011-10-25 13:50:56 51°11.486 2°45.683 23.032 0.016802 0.094787 -3.020363
2011-10-25 13:51:56 51°11.539 2°46.002 23.0466 0.016802 0.094814 -3.020363
2011-10-25 13:52:56 51°11.581 2°46.323 23.0146 0.016802 0.094842 -3.020363
2011-10-25 13:53:56 51°11.627 2°46.643 23.0668 0.016802 0.094868 -3.020363
2011-10-25 13:54:56 51°11.679 2°46.959 23.0124 0.016699 0.094329 -3.020363
2011-10-25 13:55:56 51°11.732 2°47.273 23.0544 0.016699 0.094353 -3.020363
2011-10-25 13:56:56 51°11.764 2°47.593 23.0096 0.016699 0.094376 -3.020363
2011-10-25 13:57:56 51°11.792 2°47.836 22.9594 0.016699 0.094398 -3.020363
2011-10-25 13:58:56 51°11.816 2°47.952 22.9475 0.016699 0.094436 -3.020363
2011-10-25 13:59:56 51°11.846 2°48.018 22.9057 0.016699 0.094465 -3.020363
2011-10-25 14:00:56 51°11.94 2°48.085 22.9962 0.016699 0.094474 -3.020363
2011-10-25 14:01:56 51°12.034 2°48.209 22.9401 0.016699 0.094482 -3.020363
2011-10-25 14:02:56 51°12.078 2°48.308 22.9399 0.016699 0.094494 -3.020363
2011-10-25 14:03:56 51°12.116 2°48.386 22.946 0.016699 0.094503 -3.020363
2011-10-25 14:04:56 51°12.149 2°48.462 22.9413 0.016699 0.094513 -3.020363
2011-10-25 14:05:56 51°12.18 2°48.537 22.9589 0.016699 0.094522 -3.020363
2011-10-25 14:06:56 51°12.213 2°48.616 22.9292 0.016699 0.09453 -3.020363
2011-10-25 14:07:56 51°12.252 2°48.69 22.9389 0.016699 0.094537 -3.020363
2011-10-25 14:08:56 51°12.297 2°48.758 22.9427 0.016597 0.093978 -3.020363
2011-10-25 14:09:56 51°12.342 2°48.824 22.9498 0.016597 0.093984 -3.020363
2011-10-25 14:10:56 51°12.388 2°48.891 22.9312 0.016597 0.09399 -3.020363
2011-10-25 14:11:56 51°12.432 2°48.96 22.9217 0.016597 0.093996 -3.020363
2011-10-25 14:12:56 51°12.475 2°49.031 22.9031 0.016597 0.094002 -3.020363
2011-10-25 14:13:56 51°12.518 2°49.102 22.9489 0.016597 0.094007 -3.020363
2011-10-25 14:14:56 51°12.562 2°49.172 22.9339 0.016597 0.094009 -3.020363
2011-10-25 14:15:56 51°12.606 2°49.241 22.9144 0.016597 0.094012 -3.020363
2011-10-25 14:16:56 51°12.65 2°49.31 22.9415 0.016597 0.094015 -3.020363
2011-10-25 14:17:56 51°12.692 2°49.383 22.9183 0.016597 0.094018 -3.020363
2011-10-25 14:18:56 51°12.719 2°49.466 22.8833 0.016597 0.094022 -3.020363
2011-10-25 14:19:56 51°12.743 2°49.549 22.9334 0.016597 0.094025 -3.020363
2011-10-25 14:20:56 51°12.76 2°49.634 22.9032 0.016597 0.094028 -3.020363
2011-10-25 14:21:56 51°12.767 2°49.721 22.9118 0.016597 0.094036 -3.020363
2011-10-25 14:22:56 51°12.762 2°49.809 22.9222 0.016597 0.094042 -3.020363
2011-10-25 14:23:56 51°12.761 2°49.885 22.8474 0.016597 0.094051 -3.020363
2011-10-25 14:24:56 51°12.816 2°50.054 23.0421 0.016597 0.094061 -3.020363
2011-10-25 14:25:56 51°12.901 2°50.177 22.915 0.016597 0.094068 -3.020363
2011-10-25 14:26:56 51°12.959 2°50.204 22.9302 0.016597 0.094077 -3.020363
2011-10-25 14:27:56 51°13.009 2°50.225 23.0285 0.016597 0.094085 -3.020363
2011-10-25 14:28:56 51°13.098 2°50.373 23.0472 0.016597 0.09409 -3.020363
2011-10-25 14:29:56 51°13.212 2°50.573 23.0196 0.016597 0.094093 -3.020363
2011-10-25 14:30:56 51°13.324 2°50.789 23.0484 0.016597 0.094099 -3.020363
2011-10-25 14:31:56 51°13.429 2°51.01 23.0662 0.016597 0.09411 -3.020363
2011-10-25 14:32:56 51°13.462 2°51.28 23.0937 0.016494 0.093554 -3.020363
2011-10-25 14:33:56 51°13.42 2°51.425 22.9771 0.016494 0.093574 -3.020363
2011-10-25 14:34:56 51°13.383 2°51.43 22.925 0.016494 0.093592 -3.020363
2011-10-25 14:35:56 51°13.38 2°51.424 22.9524 0.016494 0.093607 -3.020363
2011-10-25 14:36:56 51°13.382 2°51.419 22.9387 0.016494 0.093616 -3.020363
2011-10-25 14:37:56 51°13.384 2°51.413 22.9344 0.016494 0.093615 -3.020363
2011-10-25 14:38:56 51°13.385 2°51.408 22.9258 0.016494 0.093612 -3.020363
2011-10-25 14:39:56 51°13.386 2°51.401 22.9672 0.016494 0.093607 -3.020363
2011-10-25 14:40:56 51°13.388 2°51.394 22.8822 0.016494 0.093601 -3.020363
2011-10-25 14:41:56 51°13.391 2°51.387 22.9068 0.016494 0.093595 -3.020363
2011-10-25 14:42:56 51°13.393 2°51.378 22.891 0.016494 0.093589 -3.020363
2011-10-25 14:43:56 51°13.394 2°51.369 22.8988 0.016494 0.093583 -3.020363
2011-10-25 14:44:56 51°13.396 2°51.36 22.8748 0.016494 0.093575 -3.020363
2011-10-25 14:45:56 51°13.398 2°51.35 22.9108 0.016494 0.093571 -3.020363
2011-10-25 14:46:56 51°13.4 2°51.341 22.872 0.016494 0.093565 -3.020363
2011-10-25 14:47:56 51°13.402 2°51.331 22.899 0.016494 0.093557 -3.020363
2011-10-25 14:48:56 51°13.404 2°51.321 22.904 0.016494 0.093551 -3.020363
2011-10-25 14:49:56 51°13.404 2°51.307 22.838 0.016494 0.093543 -3.020363
2011-10-25 14:50:56 51°13.373 2°51.286 22.8008 0.016494 0.093536 -3.020363
2011-10-25 14:51:56 51°13.341 2°51.327 22.787 0.016494 0.093528 -3.020363
2011-10-25 14:52:56 51°13.329 2°51.478 22.8495 0.016494 0.09352 -3.020363
2011-10-25 14:53:56 51°13.384 2°51.708 23.0144 0.016494 0.093517 -3.020363
2011-10-25 14:54:56 51°13.498 2°51.923 23.0994 0.016494 0.093523 -3.020363
2011-10-25 14:55:56 51°13.626 2°52.154 23.0756 0.016494 0.093534 -3.020363
2011-10-25 14:56:56 51°13.736 2°52.415 23.0612 0.016494 0.093545 -3.020363
2011-10-25 14:57:56 51°13.846 2°52.678 23.0253 0.016494 0.093563 -3.020363
2011-10-25 14:58:56 51°13.967 2°52.927 23.085 0.016494 0.093584 -3.020363
2011-10-25 14:59:56 51°14.099 2°53.161 22.9696 0.016494 0.093601 -3.020363
2011-10-25 15:00:56 51°14.233 2°53.392 23.0405 0.016494 0.093619 -3.020363
2011-10-25 15:01:56 51°14.364 2°53.626 22.9771 0.016494 0.093639 -3.020363
2011-10-25 15:02:56 51°14.48 2°53.876 23.0482 0.016494 0.093656 -3.020363
2011-10-25 15:03:56 51°14.594 2°54.125 22.9466 0.016494 0.093684 -3.020363
2011-10-25 15:04:56 51°14.664 2°54.366 21.5041 0.016391 0.093086 -3.020363
2011-10-25 15:05:56 51°14.63 2°54.617 20.3072 0.016391 0.093136 -3.020363
2011-10-25 15:06:56 51°14.581 2°54.865 22.6013 0.016391 0.093136 -3.020363
2011-10-25 15:07:56 51°14.483 2°55.068 22.3997 0.016391 0.093189 -3.020363
2011-10-25 15:08:56 51°14.346 2°55.226 22.4243 0.016391 0.093218 -3.020363
2011-10-25 15:09:56 51°14.204 2°55.361 22.347 0.016391 0.093243 -3.020363
2011-10-25 15:10:59 51°14.075 2°55.458 22.325 0.016391 0.093261 -3.020363
2011-10-25 15:11:57 51°13.968 2°55.531 22.3076 0.016391 0.093275 -3.020363
2011-10-25 15:12:55 51°13.875 2°55.596 22.3308 0.016391 0.093284 -3.020363
2011-10-25 15:13:56 51°13.784 2°55.67 22.3192 0.016391 0.093288 -3.020363
2011-10-25 15:14:56 51°13.727 2°55.763 22.3546 0.016391 0.093293 -3.020363
2011-10-25 15:15:56 51°13.683 2°55.854 22.3347 0.016391 0.093297 -3.020363
2011-10-25 15:16:56 51°13.65 2°55.941 22.3268 0.016391 0.093302 -3.020363
2011-10-25 15:17:56 51°13.638 2°56.008 22.3688 0.016391 0.093308 -3.020363
2011-10-25 15:18:56 51°13.636 2°56.017 22.2293 0.016391 0.093311 -3.020363
2011-10-25 15:19:56 51°13.636 2°56.018 22.1494 0.016391 0.093313 -3.020363
2011-10-25 15:20:56 51°13.636 2°56.019 22.1176 0.016391 0.093326 -3.020363